Time;durP1;ratioP1;P1;durP2;ratioP2;P2;SDS_P1;SDS_P2;PMS_P1;PMS_P2;Temp;Humidity;BMP_temperature;BMP_pressure;BME280_temperature;BME280_humidity;BME280_pressure;Samples;Min_cycle;Max_cycle;Signal;HPM_P1;HPM_P2
2021/12/06 00:01:12;;;;;;;63.13;34.17;;;5.40;99.90;;;;;;4943124;28;39171;-77
2021/12/06 00:03:49;;;;;;;56.40;31.87;;;5.40;99.90;;;;;;4954836;28;47205;-77
2021/12/06 00:06:17;;;;;;;69.70;35.37;;;5.40;99.90;;;;;;4966724;28;37227;-77
2021/12/06 00:08:44;;;;;;;77.07;35.53;;;5.50;99.90;;;;;;4960180;28;39591;-76
2021/12/06 00:11:11;;;;;;;55.23;31.23;;;5.40;99.90;;;;;;4962102;28;39103;-76
2021/12/06 00:13:40;;;;;;;57.33;31.60;;;5.40;99.90;;;;;;4945749;28;38938;-76
2021/12/06 00:16:12;;;;;;;59.43;32.67;;;5.40;99.90;;;;;;4950825;28;36538;-76
2021/12/06 00:18:39;;;;;;;45.88;28.73;;;5.30;99.90;;;;;;4959113;28;39572;-77
2021/12/06 00:21:07;;;;;;;54.50;30.07;;;5.20;99.90;;;;;;4947760;28;38633;-77
2021/12/06 00:23:33;;;;;;;54.53;29.97;;;5.20;99.90;;;;;;4964331;28;39087;-76
2021/12/06 00:26:00;;;;;;;48.27;28.90;;;5.10;99.90;;;;;;4964898;28;37362;-76
2021/12/06 00:28:27;;;;;;;45.77;27.13;;;5.00;99.90;;;;;;4951862;28;39023;-76
2021/12/06 00:30:54;;;;;;;53.87;30.00;;;4.90;99.90;;;;;;4948301;28;37659;-76
2021/12/06 00:33:20;;;;;;;61.17;30.97;;;4.90;99.90;;;;;;4948290;28;38931;-76
2021/12/06 00:35:46;;;;;;;47.27;26.93;;;4.90;99.90;;;;;;4963200;28;37828;-76
2021/12/06 00:38:13;;;;;;;61.07;32.27;;;5.00;99.90;;;;;;4968025;28;38428;-76
2021/12/06 00:40:42;;;;;;;54.87;29.33;;;5.00;99.90;;;;;;4963962;28;38481;-76
2021/12/06 00:43:09;;;;;;;61.87;31.33;;;5.00;99.90;;;;;;4945032;28;37276;-76
2021/12/06 00:45:35;;;;;;;53.70;30.87;;;5.10;99.90;;;;;;4944842;28;36509;-75
2021/12/06 00:48:02;;;;;;;59.13;30.03;;;5.10;99.90;;;;;;4966570;28;39549;-76
2021/12/06 00:50:31;;;;;;;58.20;32.13;;;5.20;99.90;;;;;;4949447;28;39794;-76
2021/12/06 00:52:58;;;;;;;56.80;30.50;;;5.20;99.90;;;;;;4963067;28;38196;-76
2021/12/06 00:55:24;;;;;;;56.70;30.70;;;5.30;99.90;;;;;;4949922;28;35979;-76
2021/12/06 00:57:54;;;;;;;64.10;32.73;;;5.30;99.90;;;;;;4965650;28;39437;-76
2021/12/06 01:00:29;;;;;;;58.57;32.07;;;5.40;99.90;;;;;;4959003;28;38457;-76
2021/12/06 01:02:56;;;;;;;67.70;33.87;;;5.40;99.90;;;;;;4954224;28;37357;-76
2021/12/06 01:05:24;;;;;;;53.27;30.33;;;5.40;99.90;;;;;;4964664;28;38342;-76
2021/12/06 01:07:52;;;;;;;53.47;29.33;;;5.40;99.90;;;;;;4963344;28;39362;-76
2021/12/06 01:10:19;;;;;;;69.87;32.90;;;5.40;99.90;;;;;;4969218;28;38610;-76
2021/12/06 01:12:45;;;;;;;62.17;31.03;;;5.40;99.90;;;;;;4961394;28;37846;-76
2021/12/06 01:15:12;;;;;;;61.00;30.97;;;5.40;99.90;;;;;;4954205;28;38228;-76
2021/12/06 01:17:38;;;;;;;58.53;31.20;;;5.40;99.90;;;;;;4948007;28;38811;-77
2021/12/06 01:20:10;;;;;;;59.60;33.20;;;5.40;99.90;;;;;;4943435;28;37627;-77
2021/12/06 01:22:48;;;;;;;51.17;29.48;;;5.40;99.90;;;;;;4945353;28;47293;-76
2021/12/06 01:25:38;;;;;;;59.80;31.73;;;5.40;99.90;;;;;;4951352;28;36893;-77
2021/12/06 01:30:58;;;;;;;72.87;34.27;;;5.40;99.90;;;;;;4965479;28;38842;-76
2021/12/06 01:39:18;;;;;;;49.77;28.40;;;5.50;99.90;;;;;;4958102;28;41055;-76
2021/12/06 01:41:54;;;;;;;80.27;36.50;;;5.50;99.90;;;;;;4966984;28;48780;-76
2021/12/06 01:44:31;;;;;;;61.83;33.27;;;5.50;99.90;;;;;;4951626;28;36817;-76
2021/12/06 01:47:02;;;;;;;68.83;34.17;;;5.60;99.90;;;;;;4956765;28;36535;-75
2021/12/06 01:49:32;;;;;;;80.37;35.30;;;5.60;99.90;;;;;;4962627;28;38163;-76
2021/12/06 01:52:01;;;;;;;62.93;33.97;;;5.60;99.90;;;;;;4948092;28;38605;-75
2021/12/06 01:54:28;;;;;;;52.27;31.10;;;5.60;99.90;;;;;;4960575;28;49955;-76
2021/12/06 01:56:54;;;;;;;61.87;33.73;;;5.60;99.90;;;;;;4959649;28;33475;-76
2021/12/06 01:59:22;;;;;;;57.57;32.13;;;5.60;99.90;;;;;;4947149;28;37841;-76
2021/12/06 02:01:53;;;;;;;62.60;32.37;;;5.60;99.90;;;;;;4960950;28;37827;-76
2021/12/06 02:04:19;;;;;;;61.33;33.03;;;5.60;99.90;;;;;;4944359;28;38963;-75
2021/12/06 02:06:46;;;;;;;57.57;31.60;;;5.60;99.90;;;;;;4948048;28;37735;-77
2021/12/06 02:09:15;;;;;;;54.60;31.90;;;5.60;99.90;;;;;;4945670;28;38439;-77
2021/12/06 02:11:43;;;;;;;50.47;30.33;;;5.60;99.90;;;;;;4946572;28;37685;-76
2021/12/06 02:15:03;;;;;;;62.40;32.20;;;5.60;99.90;;;;;;4949276;28;37558;-75
2021/12/06 02:17:08;;;;;;;67.37;33.03;;;5.50;99.90;;;;;;4960401;28;38342;-75
2021/12/06 02:19:40;;;;;;;56.80;32.97;;;5.50;99.90;;;;;;4950418;28;47503;-76
2021/12/06 02:22:09;;;;;;;89.30;38.42;;;5.50;99.90;;;;;;4951856;28;37516;-75
2021/12/06 02:24:37;;;;;;;55.00;31.27;;;5.50;99.90;;;;;;4965248;28;37102;-76
2021/12/06 02:27:06;;;;;;;82.73;37.90;;;5.50;99.90;;;;;;4964292;28;37521;-76
2021/12/06 02:29:33;;;;;;;66.70;34.53;;;5.50;99.90;;;;;;4973033;28;38807;-76
2021/12/06 02:32:00;;;;;;;68.73;34.67;;;5.50;99.90;;;;;;4961320;28;39114;-77
2021/12/06 02:34:26;;;;;;;69.43;36.10;;;5.50;99.90;;;;;;4962490;28;39038;-77
2021/12/06 02:36:52;;;;;;;63.03;34.30;;;5.50;99.90;;;;;;4953517;28;37399;-77
2021/12/06 02:39:23;;;;;;;71.40;36.43;;;5.50;99.90;;;;;;4944867;28;38521;-76
2021/12/06 02:41:52;;;;;;;56.60;32.73;;;5.40;99.90;;;;;;4942757;28;38657;-76
2021/12/06 02:44:18;;;;;;;63.43;33.73;;;5.40;99.90;;;;;;4943433;28;38385;-75
2021/12/06 02:46:45;;;;;;;76.83;35.70;;;5.40;99.90;;;;;;4945162;28;36259;-75
2021/12/06 02:49:11;;;;;;;73.20;35.50;;;5.40;99.90;;;;;;4954597;28;37619;-76
2021/12/06 02:51:38;;;;;;;72.90;36.33;;;5.30;99.90;;;;;;4960020;28;38331;-76
2021/12/06 02:54:04;;;;;;;76.60;37.07;;;5.30;99.90;;;;;;4940443;28;37121;-76
2021/12/06 02:58:59;;;;;;;69.77;36.07;;;5.20;99.90;;;;;;4966755;28;39974;-76
2021/12/06 03:01:30;;;;;;;78.60;36.93;;;5.20;99.90;;;;;;4947540;28;37831;-76
2021/12/06 03:03:58;;;;;;;87.70;40.23;;;5.20;99.90;;;;;;4969400;28;37454;-75
2021/12/06 03:06:25;;;;;;;73.17;34.63;;;5.20;99.90;;;;;;4946451;28;38062;-76
2021/12/06 03:09:01;;;;;;;81.67;35.93;;;5.20;99.90;;;;;;4967152;28;39067;-76
2021/12/06 03:11:41;;;;;;;76.83;36.90;;;5.20;99.90;;;;;;4958797;28;46824;-75
2021/12/06 03:14:11;;;;;;;85.63;37.93;;;5.20;99.90;;;;;;4960650;28;38609;-75
2021/12/06 03:16:37;;;;;;;62.43;33.10;;;5.20;99.90;;;;;;4968437;28;39167;-75
2021/12/06 03:19:05;;;;;;;60.57;32.97;;;5.20;99.90;;;;;;4952947;28;38135;-76
2021/12/06 03:21:32;;;;;;;82.00;39.33;;;5.30;99.90;;;;;;4939856;28;37559;-75
2021/12/06 03:23:59;;;;;;;60.70;34.07;;;5.30;99.90;;;;;;4935063;28;38083;-75
2021/12/06 03:26:26;;;;;;;67.37;34.17;;;5.30;99.90;;;;;;4939414;28;37719;-76
2021/12/06 03:28:53;;;;;;;83.30;39.00;;;5.30;99.90;;;;;;4954237;28;39024;-75
2021/12/06 03:31:20;;;;;;;88.30;39.40;;;5.20;99.90;;;;;;4947691;28;37610;-75
2021/12/06 03:33:50;;;;;;;85.07;37.63;;;5.20;99.90;;;;;;4948785;28;35698;-75
2021/12/06 03:36:19;;;;;;;84.93;38.47;;;5.20;99.90;;;;;;4955507;28;37389;-75
2021/12/06 03:38:45;;;;;;;76.83;35.80;;;5.00;99.90;;;;;;4949377;28;37641;-75
2021/12/06 03:41:15;;;;;;;76.13;35.27;;;4.90;99.90;;;;;;4952795;28;37860;-76
2021/12/06 03:43:42;;;;;;;64.80;34.07;;;4.80;99.90;;;;;;4960466;28;39080;-76
2021/12/06 03:46:11;;;;;;;72.20;34.03;;;4.70;99.90;;;;;;4965285;28;38697;-75
2021/12/06 03:48:37;;;;;;;56.30;31.97;;;4.60;99.90;;;;;;4964617;28;36873;-75
2021/12/06 03:51:05;;;;;;;70.80;33.33;;;4.50;99.90;;;;;;4956823;28;38273;-76
2021/12/06 03:53:31;;;;;;;83.80;36.13;;;4.40;99.90;;;;;;4943934;28;38508;-75
2021/12/06 03:55:59;;;;;;;87.80;38.17;;;4.30;99.90;;;;;;4959258;28;36890;-75
2021/12/06 03:58:26;;;;;;;90.90;36.90;;;4.30;99.90;;;;;;4948509;28;38041;-76
2021/12/06 04:00:53;;;;;;;72.40;32.13;;;4.20;99.90;;;;;;4958710;28;38386;-75
2021/12/06 04:03:22;;;;;;;83.00;36.27;;;4.10;99.90;;;;;;4944844;28;38892;-75
2021/12/06 04:05:49;;;;;;;71.53;33.70;;;4.00;99.90;;;;;;4955567;28;36960;-75
2021/12/06 04:08:15;;;;;;;66.77;32.20;;;3.90;99.90;;;;;;4950645;28;38385;-75
2021/12/06 04:10:42;;;;;;;73.97;33.53;;;3.80;99.90;;;;;;4959835;28;38723;-75
2021/12/06 04:13:10;;;;;;;68.63;31.53;;;3.70;99.90;;;;;;4960005;28;38585;-75
2021/12/06 04:15:39;;;;;;;69.87;31.43;;;3.60;99.90;;;;;;4958382;28;37168;-76
2021/12/06 04:18:05;;;;;;;67.80;31.67;;;3.60;99.90;;;;;;4959352;28;39776;-76
2021/12/06 04:20:31;;;;;;;69.77;32.50;;;3.50;99.90;;;;;;4949950;28;40019;-76
2021/12/06 04:22:57;;;;;;;82.57;34.30;;;3.40;99.90;;;;;;4973863;28;39797;-77
2021/12/06 04:25:24;;;;;;;56.73;29.47;;;3.40;99.90;;;;;;4964532;28;37065;-77
2021/12/06 04:27:54;;;;;;;62.37;30.37;;;3.40;99.90;;;;;;4960827;28;35408;-76
2021/12/06 04:30:23;;;;;;;62.43;29.90;;;3.50;99.90;;;;;;4952037;28;38981;-77
2021/12/06 04:32:51;;;;;;;59.93;30.87;;;3.50;99.90;;;;;;4967689;28;37984;-77
2021/12/06 04:35:18;;;;;;;61.33;30.60;;;3.60;99.90;;;;;;4962452;28;40714;-77
2021/12/06 04:37:44;;;;;;;61.83;30.50;;;3.80;99.90;;;;;;4952816;28;40826;-78
2021/12/06 04:40:11;;;;;;;66.97;33.73;;;3.90;99.90;;;;;;4963078;28;37202;-77
2021/12/06 04:42:38;;;;;;;85.27;41.63;;;4.10;99.90;;;;;;4953078;28;39575;-77
2021/12/06 04:45:05;;;;;;;81.60;38.50;;;4.30;99.90;;;;;;4970750;28;38310;-77
2021/12/06 04:47:32;;;;;;;120.77;47.73;;;4.40;99.90;;;;;;4964588;28;40383;-76
2021/12/06 04:49:58;;;;;;;175.73;53.83;;;4.50;99.90;;;;;;4966312;28;38520;-77
2021/12/06 04:52:25;;;;;;;120.03;47.67;;;4.50;99.90;;;;;;4948527;28;38872;-76
2021/12/06 04:54:55;;;;;;;148.23;48.33;;;4.60;99.90;;;;;;4948903;28;37907;-77
2021/12/06 04:57:30;;;;;;;126.70;45.17;;;4.60;99.90;;;;;;4949528;28;40799;-77
2021/12/06 05:00:08;;;;;;;111.13;44.63;;;4.70;99.90;;;;;;4960348;28;38296;-75
2021/12/06 05:02:36;;;;;;;88.57;42.57;;;4.70;99.90;;;;;;4953113;28;47227;-75
2021/12/06 05:05:14;;;;;;;292.03;53.10;;;4.70;99.90;;;;;;4942062;28;37989;-76
2021/12/06 05:07:46;;;;;;;183.30;49.70;;;4.70;99.90;;;;;;4950193;28;47268;-76
2021/12/06 05:10:14;;;;;;;124.40;42.93;;;4.70;99.90;;;;;;4952562;28;39391;-76
2021/12/06 05:12:41;;;;;;;87.40;39.70;;;4.70;99.90;;;;;;4951425;28;38579;-76
2021/12/06 05:15:08;;;;;;;296.47;50.23;;;4.70;99.90;;;;;;4933644;28;36596;-76
2021/12/06 05:17:35;;;;;;;332.57;56.40;;;4.70;99.90;;;;;;4945559;28;39792;-76
2021/12/06 05:20:02;;;;;;;109.47;40.87;;;4.70;99.90;;;;;;4941357;28;40031;-76
2021/12/06 05:22:29;;;;;;;93.07;36.23;;;4.70;99.90;;;;;;4945431;28;48550;-76
2021/12/06 05:24:55;;;;;;;120.60;39.93;;;4.70;99.90;;;;;;4956390;28;37573;-76
2021/12/06 05:27:27;;;;;;;161.60;44.50;;;4.70;99.90;;;;;;4953474;28;39698;-76
2021/12/06 05:29:57;;;;;;;157.95;41.40;;;4.80;99.90;;;;;;4961769;28;38137;-76
2021/12/06 05:32:30;;;;;;;69.57;37.30;;;4.80;99.90;;;;;;4958272;28;38383;-76
2021/12/06 05:35:01;;;;;;;;;;;4.80;99.90;;;;;;4956181;28;38263;-76
2021/12/06 05:37:27;;;;;;;112.60;38.57;;;4.80;99.90;;;;;;4952198;28;47179;-75
2021/12/06 05:39:54;;;;;;;239.90;44.03;;;4.70;99.90;;;;;;4945241;28;38072;-75
2021/12/06 05:42:20;;;;;;;395.73;52.63;;;4.70;99.90;;;;;;4955343;28;39084;-76
2021/12/06 05:44:46;;;;;;;155.60;40.97;;;4.70;99.90;;;;;;4960861;28;36989;-76
2021/12/06 05:47:12;;;;;;;389.67;57.50;;;4.70;99.90;;;;;;4955799;28;38890;-76
2021/12/06 05:49:38;;;;;;;126.67;39.20;;;4.70;99.90;;;;;;4957573;28;39010;-75
2021/12/06 05:52:05;;;;;;;293.63;55.83;;;4.70;99.90;;;;;;4955049;28;38653;-76
2021/12/06 05:54:31;;;;;;;105.70;40.10;;;4.70;99.90;;;;;;4937812;28;37711;-76
2021/12/06 05:56:58;;;;;;;125.60;42.83;;;4.80;99.90;;;;;;4940793;28;38703;-76
2021/12/06 05:59:25;;;;;;;216.63;48.00;;;4.70;99.90;;;;;;4944260;28;38902;-76
2021/12/06 06:01:54;;;;;;;93.17;38.13;;;4.80;99.90;;;;;;4945152;28;38449;-77
2021/12/06 06:04:21;;;;;;;95.13;40.90;;;4.80;99.90;;;;;;4962835;28;38405;-76
2021/12/06 06:06:49;;;;;;;353.97;59.73;;;4.80;99.90;;;;;;4954332;28;40320;-76
2021/12/06 06:09:18;;;;;;;168.63;41.53;;;4.90;99.90;;;;;;4950437;28;38453;-75
2021/12/06 06:11:45;;;;;;;119.77;41.07;;;4.80;99.90;;;;;;4943431;28;37143;-77
2021/12/06 06:14:12;;;;;;;177.80;42.77;;;4.70;99.90;;;;;;4957016;28;37426;-74
2021/12/06 06:16:47;;;;;;;108.43;36.60;;;4.60;99.90;;;;;;4939599;28;39181;-76
2021/12/06 06:19:16;;;;;;;94.73;38.47;;;4.60;99.90;;;;;;4947373;28;38690;-76
2021/12/06 06:21:45;;;;;;;136.53;39.90;;;4.70;99.90;;;;;;4933309;28;40589;-74
2021/12/06 06:24:14;;;;;;;118.20;40.17;;;4.60;99.90;;;;;;4919775;28;37451;-74
2021/12/06 06:26:41;;;;;;;193.47;44.67;;;4.60;99.90;;;;;;4923114;28;38983;-75
2021/12/06 06:29:10;;;;;;;85.43;40.30;;;4.60;99.90;;;;;;4933826;28;38766;-74
2021/12/06 06:31:37;;;;;;;157.73;44.27;;;4.50;99.90;;;;;;4931516;28;38540;-75
2021/12/06 06:34:03;;;;;;;108.07;41.63;;;4.60;99.90;;;;;;4957732;28;37578;-74
2021/12/06 06:36:30;;;;;;;190.07;46.17;;;4.60;99.90;;;;;;4959754;28;39384;-74
2021/12/06 06:38:56;;;;;;;246.20;48.03;;;4.50;99.90;;;;;;4961048;28;38887;-74
2021/12/06 06:41:22;;;;;;;151.50;47.43;;;4.50;99.90;;;;;;4947469;28;38544;-74
2021/12/06 06:43:49;;;;;;;94.30;40.93;;;4.60;99.90;;;;;;4963259;28;38576;-75
2021/12/06 06:46:15;;;;;;;134.70;47.23;;;4.60;99.90;;;;;;4930449;28;39766;-75
2021/12/06 06:48:41;;;;;;;97.07;40.87;;;4.60;99.90;;;;;;4925774;28;39029;-75
2021/12/06 06:51:07;;;;;;;151.17;47.27;;;4.60;99.90;;;;;;4931854;28;39927;-76
2021/12/06 06:53:33;;;;;;;99.33;42.47;;;4.60;99.90;;;;;;4962024;28;37410;-76
2021/12/06 06:56:00;;;;;;;79.57;36.40;;;4.60;99.90;;;;;;4938635;28;40531;-78
2021/12/06 06:58:26;;;;;;;150.57;47.33;;;4.70;99.90;;;;;;4951748;28;37328;-76
2021/12/06 07:00:52;;;;;;;120.80;44.07;;;4.80;99.90;;;;;;4946939;28;38846;-77
2021/12/06 07:03:18;;;;;;;168.93;48.70;;;4.70;99.90;;;;;;4947186;28;37892;-77
2021/12/06 07:05:45;;;;;;;282.83;59.00;;;4.70;99.90;;;;;;4959483;28;38870;-77
2021/12/06 07:08:11;;;;;;;117.40;43.03;;;4.70;99.90;;;;;;4943530;28;38399;-77
2021/12/06 07:10:37;;;;;;;168.40;53.77;;;4.80;99.90;;;;;;4949015;28;38063;-77
2021/12/06 07:13:08;;;;;;;158.53;52.73;;;4.80;99.90;;;;;;4948285;28;38080;-77
2021/12/06 07:15:35;;;;;;;205.73;55.47;;;4.80;99.90;;;;;;4941344;28;39375;-77
2021/12/06 07:18:02;;;;;;;127.23;50.20;;;4.80;99.90;;;;;;4942365;28;40366;-77
2021/12/06 07:20:30;;;;;;;335.93;70.27;;;4.80;99.90;;;;;;4943477;28;47211;-78
2021/12/06 07:22:56;;;;;;;124.67;51.13;;;4.90;99.90;;;;;;4937888;28;38168;-77
2021/12/06 07:25:23;;;;;;;173.70;59.47;;;5.00;99.90;;;;;;4952385;28;39827;-77
2021/12/06 07:27:52;;;;;;;168.60;56.70;;;4.90;99.90;;;;;;4958336;28;38421;-77
2021/12/06 07:30:19;;;;;;;163.67;58.50;;;4.90;99.90;;;;;;4935685;28;38670;-77
2021/12/06 07:32:46;;;;;;;148.27;55.57;;;5.00;99.90;;;;;;4954116;28;38071;-77
2021/12/06 07:35:14;;;;;;;151.43;56.37;;;4.90;99.90;;;;;;4959103;28;38753;-77
2021/12/06 07:37:40;;;;;;;161.83;58.03;;;4.90;99.90;;;;;;4962498;28;39236;-78
2021/12/06 07:40:08;;;;;;;149.60;55.33;;;4.90;99.90;;;;;;4944258;28;37636;-77
2021/12/06 07:42:35;;;;;;;156.60;55.80;;;4.90;99.90;;;;;;4961409;28;36701;-76
2021/12/06 07:45:02;;;;;;;144.37;54.10;;;4.90;99.90;;;;;;4960957;28;39473;-78
2021/12/06 07:47:29;;;;;;;172.37;56.33;;;4.90;99.90;;;;;;4962877;28;47032;-77
2021/12/06 07:49:55;;;;;;;135.77;52.67;;;4.90;99.90;;;;;;4947096;28;39502;-77
2021/12/06 07:52:21;;;;;;;178.37;58.97;;;4.90;99.90;;;;;;4967745;28;37606;-78
2021/12/06 07:54:47;;;;;;;159.43;59.33;;;4.80;99.90;;;;;;4961791;28;36881;-79
2021/12/06 07:57:13;;;;;;;176.97;60.43;;;4.90;99.90;;;;;;4967912;28;38523;-79
2021/12/06 07:59:40;;;;;;;161.87;57.17;;;4.90;99.90;;;;;;4949695;28;38287;-79
2021/12/06 08:02:08;;;;;;;151.87;58.57;;;4.90;99.90;;;;;;4947157;28;38102;-79
2021/12/06 08:04:35;;;;;;;161.87;59.93;;;4.90;99.90;;;;;;4954256;28;40481;-79
2021/12/06 08:07:02;;;;;;;140.37;57.07;;;5.00;99.90;;;;;;4946330;28;39241;-79
2021/12/06 08:09:28;;;;;;;154.27;59.83;;;5.00;99.90;;;;;;4948469;28;47343;-79
2021/12/06 08:11:55;;;;;;;151.33;59.37;;;5.00;99.90;;;;;;4966103;28;36731;-80
2021/12/06 08:14:21;;;;;;;183.33;64.53;;;5.00;99.90;;;;;;4969539;28;39486;-80
2021/12/06 08:16:47;;;;;;;155.07;60.60;;;5.00;99.90;;;;;;4969097;28;38007;-79
2021/12/06 08:19:13;;;;;;;151.23;60.97;;;5.00;99.90;;;;;;4965773;28;39036;-80
2021/12/06 08:21:40;;;;;;;167.97;61.97;;;5.00;99.90;;;;;;4969953;28;39416;-80
2021/12/06 08:24:07;;;;;;;147.13;59.57;;;4.90;99.90;;;;;;4978215;28;37449;-79
2021/12/06 08:26:39;;;;;;;148.03;59.03;;;5.00;99.90;;;;;;4964260;28;37027;-80
2021/12/06 08:29:07;;;;;;;153.07;57.40;;;4.90;99.90;;;;;;4968551;28;37199;-79
2021/12/06 08:31:36;;;;;;;172.47;59.90;;;5.00;99.90;;;;;;4970026;28;37758;-79
2021/12/06 08:34:03;;;;;;;137.83;54.13;;;5.00;99.90;;;;;;4950379;28;39681;-80
2021/12/06 08:36:30;;;;;;;185.37;60.37;;;4.90;99.90;;;;;;4954095;28;39126;-80
2021/12/06 08:38:57;;;;;;;193.77;60.63;;;4.90;99.90;;;;;;4979598;28;38952;-79
2021/12/06 08:41:26;;;;;;;174.97;60.60;;;4.90;99.90;;;;;;4950027;28;36946;-79
2021/12/06 08:43:55;;;;;;;181.23;60.93;;;4.80;99.90;;;;;;4967906;28;39551;-79
2021/12/06 08:46:25;;;;;;;201.37;62.57;;;4.70;99.90;;;;;;4962865;28;38322;-79
2021/12/06 08:48:53;;;;;;;165.90;58.93;;;4.80;99.90;;;;;;4958272;28;42464;-78
2021/12/06 08:51:50;;;;;;;189.07;61.67;;;4.80;99.90;;;;;;4965003;28;37419;-78
2021/12/06 08:54:22;;;;;;;156.17;54.60;;;4.80;99.90;;;;;;4965123;28;39000;-79
2021/12/06 08:56:49;;;;;;;157.73;57.50;;;4.80;99.90;;;;;;4947270;28;39094;-79
2021/12/06 08:59:15;;;;;;;159.57;57.97;;;4.90;99.90;;;;;;4953422;28;39087;-79
2021/12/06 09:01:42;;;;;;;166.90;52.87;;;4.90;99.90;;;;;;4953922;28;36514;-79
2021/12/06 09:04:12;;;;;;;130.70;48.43;;;4.80;99.90;;;;;;4960265;28;40956;-79
2021/12/06 09:06:46;;;;;;;144.83;49.57;;;4.70;99.90;;;;;;4969555;28;38852;-79
2021/12/06 09:09:13;;;;;;;130.30;48.10;;;4.70;99.90;;;;;;4950639;28;38574;-78
2021/12/06 09:11:43;;;;;;;181.87;52.93;;;4.70;99.90;;;;;;4969776;28;20055;-79
2021/12/06 09:14:10;;;;;;;122.33;46.27;;;4.70;99.90;;;;;;4950909;28;40169;-78
2021/12/06 09:16:37;;;;;;;181.43;49.63;;;4.80;99.90;;;;;;4943742;28;38880;-78
2021/12/06 09:19:08;;;;;;;154.63;47.77;;;4.80;99.90;;;;;;4941272;28;39793;-79
2021/12/06 09:21:38;;;;;;;168.63;49.57;;;4.70;99.90;;;;;;4947464;28;38148;-79
2021/12/06 09:24:07;;;;;;;159.30;50.10;;;4.70;99.90;;;;;;4949562;28;40736;-79
2021/12/06 09:26:34;;;;;;;127.60;46.13;;;4.70;99.90;;;;;;4951265;28;38823;-78
2021/12/06 09:29:00;;;;;;;126.90;47.97;;;4.60;99.90;;;;;;4957607;28;38632;-78
2021/12/06 09:31:27;;;;;;;129.90;48.73;;;4.60;99.90;;;;;;4954578;28;37649;-79
2021/12/06 09:33:53;;;;;;;134.43;48.20;;;4.70;99.90;;;;;;4953103;28;40662;-79
2021/12/06 09:36:21;;;;;;;138.90;49.53;;;4.70;99.90;;;;;;4964606;28;39094;-79
2021/12/06 09:38:47;;;;;;;130.40;46.97;;;4.70;99.90;;;;;;4965124;28;38883;-79
2021/12/06 09:41:23;;;;;;;129.43;49.90;;;4.80;99.90;;;;;;4949825;28;39141;-78
2021/12/06 09:43:51;;;;;;;128.83;48.67;;;4.80;99.90;;;;;;4960777;28;40951;-79
2021/12/06 09:46:18;;;;;;;121.93;49.90;;;4.80;99.90;;;;;;4956004;28;38515;-79
2021/12/06 09:48:46;;;;;;;112.47;47.77;;;4.90;99.90;;;;;;4986092;28;37297;-78
2021/12/06 09:51:24;;;;;;;119.00;49.60;;;4.90;99.90;;;;;;4974306;28;37431;-79
2021/12/06 09:53:52;;;;;;;114.60;49.63;;;5.00;99.90;;;;;;4972441;28;39765;-79
2021/12/06 09:56:26;;;;;;;106.87;46.87;;;5.00;99.90;;;;;;4950129;28;39212;-77
2021/12/06 09:58:54;;;;;;;105.30;46.80;;;5.10;99.90;;;;;;4943081;28;38665;-79
2021/12/06 10:01:25;;;;;;;93.07;45.10;;;5.10;99.90;;;;;;4966214;28;37319;-78
2021/12/06 10:03:55;;;;;;;99.90;47.50;;;5.20;99.90;;;;;;4962391;28;40454;-78
2021/12/06 10:06:22;;;;;;;97.07;46.00;;;5.30;99.90;;;;;;4947416;28;37096;-79
2021/12/06 10:08:50;;;;;;;97.57;46.43;;;5.30;99.90;;;;;;4949389;28;38850;-79
2021/12/06 10:11:20;;;;;;;101.83;46.90;;;5.40;99.90;;;;;;4961911;28;37166;-78
2021/12/06 10:13:47;;;;;;;100.27;46.80;;;5.50;99.90;;;;;;4955647;28;39484;-77
2021/12/06 10:16:14;;;;;;;104.23;47.57;;;5.50;99.90;;;;;;4954749;28;38808;-78
2021/12/06 10:18:41;;;;;;;100.67;48.03;;;5.50;99.90;;;;;;4956487;28;39973;-78
2021/12/06 10:21:08;;;;;;;99.87;47.73;;;5.50;99.90;;;;;;4949545;28;39325;-78
2021/12/06 10:23:37;;;;;;;99.83;48.23;;;5.50;99.90;;;;;;4963728;28;38564;-78
2021/12/06 10:26:07;;;;;;;102.17;48.33;;;5.60;99.90;;;;;;4950550;28;38783;-79
2021/12/06 10:28:34;;;;;;;102.53;47.23;;;5.70;99.90;;;;;;4955113;28;39521;-79
2021/12/06 10:31:04;;;;;;;102.80;47.43;;;5.70;99.90;;;;;;4948346;28;37537;-77
2021/12/06 10:33:34;;;;;;;96.30;44.97;;;5.70;99.90;;;;;;4943261;28;47016;-78
2021/12/06 10:36:06;;;;;;;105.43;48.47;;;5.60;99.90;;;;;;4939176;28;38500;-78
2021/12/06 10:38:47;;;;;;;107.32;46.50;;;5.70;99.90;;;;;;4944018;28;47414;-79
2021/12/06 10:41:15;;;;;;;113.47;48.67;;;5.70;99.90;;;;;;4945553;28;38217;-79
2021/12/06 10:44:03;;;;;;;115.23;47.83;;;5.60;99.90;;;;;;4967092;28;39196;-79
2021/12/06 10:46:31;;;;;;;120.00;48.37;;;5.60;99.90;;;;;;4952619;28;48744;-78
2021/12/06 10:49:01;;;;;;;107.70;45.00;;;5.60;99.90;;;;;;4947402;28;39106;-79
2021/12/06 10:51:28;;;;;;;114.80;44.37;;;5.50;99.90;;;;;;4948671;28;38971;-79
2021/12/06 10:54:01;;;;;;;125.57;47.20;;;5.50;99.90;;;;;;4953545;28;39360;-78
2021/12/06 10:57:07;;;;;;;114.73;47.50;;;5.60;99.90;;;;;;4951388;28;48563;-78
2021/12/06 10:59:28;;;;;;;125.83;48.07;;;5.50;99.90;;;;;;4961639;28;38022;-80
2021/12/06 11:02:23;;;;;;;121.68;45.25;;;5.50;99.90;;;;;;4945414;28;38950;-79
2021/12/06 11:04:49;;;;;;;116.87;45.27;;;5.50;99.90;;;;;;4938940;28;46879;-79
2021/12/06 11:07:15;;;;;;;113.93;43.63;;;5.50;99.90;;;;;;4954030;28;39641;-78
2021/12/06 11:09:42;;;;;;;125.10;45.37;;;5.50;99.90;;;;;;4946232;28;38712;-78
2021/12/06 11:12:17;;;;;;;117.33;43.50;;;5.50;99.90;;;;;;4945202;28;39120;-79
2021/12/06 11:14:44;;;;;;;107.10;41.30;;;5.40;99.90;;;;;;4946451;28;42155;-78
2021/12/06 11:17:13;;;;;;;106.13;40.13;;;5.50;99.90;;;;;;4935522;28;38529;-79
2021/12/06 11:19:40;;;;;;;115.83;40.53;;;5.50;99.90;;;;;;4958933;28;39346;-79
2021/12/06 11:22:10;;;;;;;104.33;39.97;;;5.40;99.90;;;;;;4958423;28;38928;-79
2021/12/06 11:24:40;;;;;;;86.40;36.73;;;5.50;99.90;;;;;;4949834;28;39488;-79
2021/12/06 11:27:21;;;;;;;83.60;35.20;;;5.50;99.90;;;;;;4966954;28;38388;-79
2021/12/06 11:29:54;;;;;;;78.83;34.10;;;5.50;99.90;;;;;;4949627;28;39497;-78
2021/12/06 11:32:33;;;;;;;82.47;34.83;;;5.40;99.90;;;;;;4953721;28;39384;-79
2021/12/06 11:35:04;;;;;;;76.50;32.80;;;5.30;99.90;;;;;;4960975;28;39598;-79
2021/12/06 11:37:40;;;;;;;73.20;31.10;;;5.30;99.90;;;;;;4964908;28;47008;-78
2021/12/06 11:40:18;;;;;;;67.27;28.87;;;5.30;99.90;;;;;;4955980;28;39220;-77
2021/12/06 11:43:05;;;;;;;67.13;31.20;;;5.40;99.90;;;;;;4963313;28;39544;-76
2021/12/06 11:45:40;;;;;;;70.77;30.33;;;5.50;99.90;;;;;;4966707;28;48354;-77
2021/12/06 11:48:16;;;;;;;66.37;30.37;;;5.40;99.90;;;;;;4950109;28;39102;-77
2021/12/06 11:50:50;;;;;;;68.67;30.70;;;5.40;99.90;;;;;;4964149;28;39054;-77
2021/12/06 11:53:18;;;;;;;65.77;30.93;;;5.30;99.90;;;;;;4955318;28;37644;-77
2021/12/06 11:55:50;;;;;;;63.43;30.63;;;5.30;99.90;;;;;;4952556;28;37429;-77
2021/12/06 11:58:37;;;;;;;63.45;30.30;;;5.40;99.90;;;;;;4962358;28;38257;-76
2021/12/06 12:01:05;;;;;;;67.10;29.67;;;5.30;99.90;;;;;;4954469;28;38027;-77
2021/12/06 12:03:33;;;;;;;64.47;30.60;;;5.30;99.90;;;;;;4951000;28;38317;-77
2021/12/06 12:05:59;;;;;;;69.20;31.50;;;5.20;99.90;;;;;;4940881;28;39500;-76
2021/12/06 12:08:31;;;;;;;60.77;30.07;;;5.20;99.90;;;;;;4939446;28;38593;-77
2021/12/06 12:10:58;;;;;;;65.85;31.20;;;5.30;99.90;;;;;;4937528;28;36668;-77
2021/12/06 12:13:36;;;;;;;55.20;28.37;;;5.20;99.90;;;;;;4962562;28;37984;-77
2021/12/06 12:16:08;;;;;;;57.80;29.47;;;5.20;99.90;;;;;;4945830;28;39204;-77
2021/12/06 12:18:37;;;;;;;50.38;28.25;;;5.10;99.90;;;;;;4947375;28;38939;-76
2021/12/06 12:21:06;;;;;;;47.30;26.23;;;5.10;99.90;;;;;;4953230;28;38691;-76
2021/12/06 12:23:33;;;;;;;45.23;25.67;;;5.20;99.90;;;;;;4951583;28;38111;-76
2021/12/06 12:26:05;;;;;;;45.53;24.07;;;5.30;99.90;;;;;;4936365;28;40343;-76
2021/12/06 12:28:37;;;;;;;;;;;5.30;99.90;;;;;;4949727;28;47456;-76
2021/12/06 12:31:07;;;;;;;41.97;23.20;;;5.30;99.90;;;;;;4952970;28;38360;-76
2021/12/06 12:33:34;;;;;;;43.70;23.50;;;5.20;99.90;;;;;;4949102;28;38851;-75
2021/12/06 12:36:16;;;;;;;37.83;21.97;;;5.20;99.90;;;;;;4949385;28;40835;-76
2021/12/06 12:38:46;;;;;;;40.50;21.52;;;5.20;99.90;;;;;;4972738;28;49152;-77
2021/12/06 12:41:16;;;;;;;42.57;24.13;;;5.20;99.90;;;;;;4957539;28;39282;-76
2021/12/06 12:43:46;;;;;;;40.80;22.30;;;5.30;99.90;;;;;;4949870;28;38205;-77
2021/12/06 12:46:16;;;;;;;44.43;23.83;;;5.30;99.90;;;;;;4950785;28;38659;-77
2021/12/06 12:48:51;;;;;;;45.40;22.47;;;5.40;99.90;;;;;;4949015;28;40102;-77
2021/12/06 12:51:32;;;;;;;40.60;23.43;;;5.30;99.90;;;;;;4961091;28;36923;-77
2021/12/06 12:54:22;;;;;;;41.87;22.90;;;5.40;99.90;;;;;;4938506;28;38012;-77